createdAt,value
2023-09-01T00:04:10.272Z,46.56
2023-09-01T00:09:09.051Z,47.85
2023-09-01T00:14:08.057Z,47.93
2023-09-01T00:19:07.030Z,48.23
2023-09-01T00:24:07.870Z,48.24
2023-09-01T00:29:06.877Z,47.99
2023-09-01T00:34:06.570Z,48.47
2023-09-01T00:39:06.939Z,48.32
2023-09-01T00:44:06.768Z,48.04
2023-09-01T00:49:05.689Z,48.01
2023-09-01T00:54:06.902Z,48.13
2023-09-01T00:59:06.417Z,48.63
2023-09-01T01:04:09.174Z,49.44
2023-09-01T01:09:19.217Z,48.91
2023-09-01T01:14:25.990Z,50.20
2023-09-01T01:19:51.497Z,50.45
2023-09-01T01:24:51.859Z,50.90
2023-09-01T01:29:51.083Z,50.78
2023-09-01T01:34:56.316Z,50.74
2023-09-01T01:39:58.004Z,50.85
2023-09-01T01:44:59.344Z,50.97
2023-09-01T01:49:58.211Z,51.08
2023-09-01T01:54:58.559Z,50.81
2023-09-01T01:59:57.408Z,51.79
2023-09-01T02:04:56.304Z,52.01
2023-09-01T02:09:55.092Z,51.94
2023-09-01T02:14:55.673Z,52.12
2023-09-01T02:19:54.706Z,52.25
2023-09-01T02:24:53.584Z,52.72
2023-09-01T02:29:52.455Z,52.93
2023-09-01T02:34:52.844Z,53.98
2023-09-01T02:39:51.773Z,54.25
2023-09-01T02:44:50.701Z,54.76
2023-09-01T02:49:49.581Z,53.88
2023-09-01T02:54:49.844Z,53.59
2023-09-01T02:59:48.693Z,53.98
2023-09-01T03:04:49.701Z,54.02
2023-09-01T03:09:50.429Z,53.87
2023-09-01T03:14:50.081Z,54.54
2023-09-01T03:19:51.981Z,54.33
2023-09-01T03:24:53.531Z,54.93
2023-09-01T03:29:55.915Z,54.56
2023-09-01T03:34:57.614Z,55.80
2023-09-01T03:39:57.996Z,55.13
2023-09-01T03:44:56.869Z,55.45
2023-09-01T03:49:55.996Z,55.22
2023-09-01T03:54:55.777Z,55.50
2023-09-01T03:59:56.157Z,55.58
2023-09-01T04:04:54.989Z,55.70
2023-09-01T04:09:53.835Z,56.36
2023-09-01T04:14:52.794Z,56.36
2023-09-01T04:19:53.315Z,56.25
2023-09-01T04:24:53.024Z,56.72
2023-09-01T04:30:07.770Z,56.91
2023-09-01T04:35:12.058Z,57.33
2023-09-01T04:40:12.605Z,58.49
2023-09-01T04:45:12.407Z,59.00
2023-09-01T04:50:12.867Z,59.09
2023-09-01T04:55:12.068Z,59.04
2023-09-01T05:00:18.234Z,59.08
2023-09-01T05:05:18.901Z,59.25
2023-09-01T05:10:18.717Z,59.39
2023-09-01T05:15:17.729Z,59.74
2023-09-01T05:20:16.781Z,59.68
2023-09-01T05:25:17.355Z,60.38
2023-09-01T05:30:16.318Z,59.66
2023-09-01T05:35:15.866Z,60.26
2023-09-01T05:40:18.418Z,59.86
2023-09-01T05:45:18.248Z,59.59
2023-09-01T05:50:17.334Z,59.21
2023-09-01T05:55:18.161Z,59.40
2023-09-01T06:00:17.652Z,58.86
2023-09-01T06:05:18.028Z,58.93
2023-09-01T06:10:18.698Z,58.31
2023-09-01T06:15:17.557Z,57.79
2023-09-01T06:20:20.226Z,58.26
2023-09-01T06:25:24.185Z,57.79
2023-09-01T06:30:24.751Z,57.14
2023-09-01T06:35:23.640Z,56.89
2023-09-01T06:40:23.938Z,56.35
2023-09-01T06:45:22.894Z,57.23
2023-09-01T06:50:21.935Z,56.91
2023-09-01T06:55:20.707Z,56.83
2023-09-01T07:00:21.520Z,56.40
2023-09-01T07:05:21.676Z,56.38
2023-09-01T07:10:21.324Z,56.35
2023-09-01T07:15:22.011Z,55.81
2023-09-01T07:20:21.022Z,55.43
2023-09-01T07:25:20.035Z,54.73
2023-09-01T07:30:18.982Z,53.54
2023-09-01T07:35:19.424Z,53.51
2023-09-01T07:40:18.320Z,52.40
2023-09-01T07:45:17.666Z,51.78
2023-09-01T07:50:16.696Z,51.17
2023-09-01T07:55:17.253Z,51.08
2023-09-01T08:00:18.598Z,50.63
2023-09-01T08:05:17.636Z,50.20
2023-09-01T08:10:18.094Z,49.87
2023-09-01T08:15:17.042Z,49.51
2023-09-01T08:20:15.892Z,48.99
2023-09-01T08:25:14.867Z,48.08
2023-09-01T08:30:15.715Z,47.06
2023-09-01T08:35:14.848Z,46.24
2023-09-01T08:40:14.049Z,46.44
2023-09-01T08:45:16.047Z,45.70
2023-09-01T08:50:16.162Z,43.60
2023-09-01T08:55:15.220Z,41.42
2023-09-01T09:00:16.789Z,39.31
2023-09-01T09:05:17.827Z,38.30
2023-09-01T09:10:16.739Z,34.79
2023-09-01T09:15:21.186Z,35.00
2023-09-01T09:20:41.195Z,33.69
2023-09-01T09:25:40.019Z,31.63
2023-09-01T09:30:50.605Z,31.73
2023-09-01T09:35:53.068Z,29.26
2023-09-01T09:40:58.980Z,28.76
2023-09-01T09:46:02.137Z,28.12
2023-09-01T09:51:02.338Z,26.22
2023-09-01T09:56:11.773Z,26.50
2023-09-01T10:01:18.357Z,24.95
2023-09-01T10:06:19.210Z,22.59
2023-09-01T10:11:19.999Z,22.81
2023-09-01T10:16:20.995Z,23.60
2023-09-01T10:21:19.895Z,21.71
2023-09-01T10:26:26.419Z,20.31
2023-09-01T10:31:27.670Z,19.13
2023-09-01T10:36:26.937Z,20.86
2023-09-01T10:41:52.749Z,21.32
2023-09-01T10:46:53.189Z,19.39
2023-09-01T10:52:15.485Z,19.45
2023-09-01T10:57:16.167Z,20.05
2023-09-01T11:02:30.025Z,19.48
2023-09-01T11:07:33.067Z,20.54
2023-09-01T11:12:40.566Z,20.94
2023-09-01T11:17:46.336Z,20.54
2023-09-01T11:22:47.455Z,19.56
2023-09-01T11:27:57.071Z,19.87
2023-09-01T11:33:02.214Z,19.43
2023-09-01T11:38:02.339Z,19.95
2023-09-01T11:43:03.029Z,18.44
2023-09-01T11:48:09.595Z,19.36
2023-09-01T11:53:08.923Z,20.36
2023-09-01T11:58:09.969Z,19.63
2023-09-01T12:03:11.158Z,19.17
2023-09-01T12:08:17.586Z,18.51
2023-09-01T12:13:38.005Z,18.76
2023-09-01T12:18:44.976Z,17.18
2023-09-01T12:23:50.588Z,16.45
2023-09-01T12:28:56.557Z,16.86
2023-09-01T12:34:00.074Z,17.10
2023-09-01T12:39:02.004Z,17.81
2023-09-01T12:44:26.819Z,18.87
2023-09-01T12:49:33.867Z,20.65
2023-09-01T12:54:48.197Z,19.92
2023-09-01T12:59:58.777Z,19.57
2023-09-01T13:05:19.860Z,19.56
2023-09-01T13:10:33.523Z,19.44
2023-09-01T13:15:35.587Z,19.93
2023-09-01T13:20:46.207Z,20.33
2023-09-01T13:25:45.128Z,20.83
2023-09-01T13:30:45.780Z,20.25
2023-09-01T13:36:03.025Z,20.33
2023-09-01T13:41:10.658Z,20.68
2023-09-01T13:46:23.615Z,21.56
2023-09-01T13:51:30.064Z,21.96
2023-09-01T13:56:32.375Z,22.03
2023-09-01T14:01:32.052Z,21.55
2023-09-01T14:06:33.489Z,22.41
2023-09-01T14:11:36.057Z,23.18
2023-09-01T14:16:35.065Z,23.31
2023-09-01T14:21:44.486Z,23.70
2023-09-01T14:26:52.656Z,23.98
2023-09-01T14:31:52.793Z,24.28
2023-09-01T14:36:54.011Z,24.30
2023-09-01T14:41:53.935Z,24.03
2023-09-01T14:46:54.338Z,25.20
2023-09-01T14:51:55.100Z,25.36
2023-09-01T14:57:29.044Z,26.10
2023-09-01T15:03:10.036Z,25.82
2023-09-01T15:08:12.909Z,25.48
2023-09-01T15:13:18.493Z,25.03
2023-09-01T15:18:17.788Z,23.97
2023-09-01T15:23:18.749Z,23.67
2023-09-01T15:28:18.135Z,22.95
2023-09-01T15:33:17.492Z,23.16
2023-09-01T15:38:16.403Z,23.17
2023-09-01T15:43:16.823Z,23.97
2023-09-01T15:48:16.199Z,26.26
2023-09-01T15:53:16.083Z,26.67
2023-09-01T15:58:16.608Z,26.18
2023-09-01T16:03:18.816Z,25.75
2023-09-01T16:08:21.406Z,25.68
2023-09-01T16:13:21.684Z,25.50
2023-09-01T16:18:20.445Z,25.78
2023-09-01T16:23:19.286Z,26.07
2023-09-01T16:28:19.440Z,26.61
2023-09-01T16:33:19.647Z,26.88
2023-09-01T16:38:18.442Z,26.56
2023-09-01T16:43:17.900Z,26.56
2023-09-01T16:48:17.800Z,26.75
2023-09-01T16:53:18.261Z,26.67
2023-09-01T16:58:17.546Z,27.19
2023-09-01T17:03:16.563Z,27.46
2023-09-01T17:08:15.713Z,27.32
2023-09-01T17:13:17.077Z,28.20
2023-09-01T17:18:16.589Z,28.58
2023-09-01T17:23:16.001Z,29.03
2023-09-01T17:28:16.370Z,28.96
2023-09-01T17:33:15.735Z,29.87
2023-09-01T17:38:18.225Z,29.49
2023-09-01T17:43:18.833Z,30.10
2023-09-01T17:48:18.028Z,30.35
2023-09-01T17:53:17.022Z,30.39
2023-09-01T17:58:16.015Z,30.79
2023-09-01T18:03:16.581Z,30.87
2023-09-01T18:08:15.634Z,31.19
2023-09-01T18:13:15.785Z,31.53
2023-09-01T18:18:16.898Z,31.24
2023-09-01T18:23:18.823Z,31.34
2023-09-01T18:28:18.185Z,31.40
2023-09-01T18:33:24.594Z,31.84
2023-09-01T18:38:27.097Z,32.43
2023-09-01T18:43:28.896Z,32.38
2023-09-01T18:48:29.370Z,32.98
2023-09-01T18:53:33.142Z,34.20
2023-09-01T18:58:40.709Z,35.10
2023-09-01T19:03:42.987Z,35.48
2023-09-01T19:08:42.136Z,35.25
2023-09-01T19:13:41.166Z,35.35
2023-09-01T19:18:42.816Z,34.75
2023-09-01T19:23:42.462Z,34.50
2023-09-01T19:28:46.330Z,34.44
2023-09-01T19:33:54.919Z,34.26
2023-09-01T19:38:53.944Z,34.67
2023-09-01T19:43:58.093Z,34.61
2023-09-01T19:48:59.886Z,34.62
2023-09-01T19:54:00.556Z,34.33
2023-09-01T19:59:02.129Z,34.36
2023-09-01T20:04:03.360Z,34.06
2023-09-01T20:09:13.088Z,34.29
2023-09-01T20:14:12.558Z,34.00
2023-09-01T20:19:16.202Z,34.51
2023-09-01T20:24:14.940Z,34.27
2023-09-01T20:29:13.911Z,34.51
2023-09-01T20:34:17.169Z,34.64
2023-09-01T20:39:17.080Z,34.86
2023-09-01T20:44:16.166Z,35.55
2023-09-01T20:49:16.554Z,35.93
2023-09-01T20:54:15.407Z,36.36
2023-09-01T20:59:14.194Z,37.08
2023-09-01T21:04:13.109Z,36.94
2023-09-01T21:09:14.200Z,37.48
2023-09-01T21:14:13.264Z,37.97
2023-09-01T21:19:12.927Z,38.22
2023-09-01T21:24:13.168Z,38.71
2023-09-01T21:29:12.105Z,39.03
2023-09-01T21:34:11.031Z,39.58
2023-09-01T21:39:10.001Z,40.24
2023-09-01T21:44:12.685Z,40.52
2023-09-01T21:49:12.001Z,40.51
2023-09-01T21:54:11.016Z,42.27
2023-09-01T21:59:11.400Z,42.60
2023-09-01T22:04:10.553Z,41.08
2023-09-01T22:09:09.582Z,40.07
2023-09-01T22:14:08.510Z,39.52
2023-09-01T22:19:08.876Z,38.96
2023-09-01T22:24:08.905Z,39.10
2023-09-01T22:29:07.741Z,38.68
2023-09-01T22:34:08.108Z,38.21
2023-09-01T22:40:35.409Z,38.79
2023-09-01T22:45:34.391Z,38.66
2023-09-01T22:50:34.708Z,38.26
2023-09-01T22:55:33.759Z,38.89
2023-09-01T23:00:34.536Z,38.67
2023-09-01T23:05:34.973Z,38.86
2023-09-01T23:10:34.175Z,38.75
2023-09-01T23:15:33.291Z,39.31
2023-09-01T23:20:32.269Z,39.02
2023-09-01T23:25:34.825Z,39.22
2023-09-01T23:30:34.038Z,39.79
2023-09-01T23:35:33.546Z,40.46
2023-09-01T23:40:34.392Z,40.59
2023-09-01T23:45:33.420Z,40.72
2023-09-01T23:50:32.402Z,41.32
2023-09-01T23:55:31.212Z,42.10
